BIMM weather

Melgerðismelar Airport
Melgerðismelar, Northeastern Region, Iceland

Public forecast

Using degrees Celsius for public forecast. Weather courtesy of forecast.io.

Closest aviation weather report (METAR) to Melgerðismelar Airport

Closest report is Akureyri Airport, 10.9 nm (20.1 km) NNE. Retrieved 2020/07/13 11:00 UTC (36 minutes ago):

BIAR 131100Z 36010KT 9999 FEW045 OVC060 13/11 Q1008

Closest aviation forecast (TAF) to Melgerðismelar Airport

Closest forecast is Akureyri Airport, 10.9 nm (20.1 km) NNE. Retrieved 2020/07/13 09:00 UTC (3 hours ago):

TAF BIAR 130753Z 1309/1409 35006KT 9999 FEW012 SCT020 BKN040 TX15/1315Z TN09/1403Z TEMPO 1309/1311 4000 RADZ BR BKN014 PROB40 TEMPO 1313/1319 SHRA BKN025CB